Time;durP1;ratioP1;P1;durP2;ratioP2;P2;SDS_P1;SDS_P2;PMS_P1;PMS_P2;Temp;Humidity;BMP_temperature;BMP_pressure;BME280_temperature;BME280_humidity;BME280_pressure;Samples;Min_cycle;Max_cycle;Signal;HPM_P1;HPM_P2
2021/05/11 00:00:28;;;;;;;2.00;1.90;;;15.60;99.90;;;;;;5095948;28;20566;-69
2021/05/11 00:02:53;;;;;;;2.70;1.90;;;15.60;99.90;;;;;;5082252;28;20259;-69
2021/05/11 00:05:19;;;;;;;6.63;2.87;;;15.70;99.90;;;;;;5076452;28;20180;-69
2021/05/11 00:07:44;;;;;;;2.17;1.90;;;15.60;99.90;;;;;;5095299;28;20183;-69
2021/05/11 00:10:11;;;;;;;2.50;1.93;;;15.60;99.90;;;;;;5082325;28;20172;-69
2021/05/11 00:12:36;;;;;;;2.20;2.00;;;15.60;99.90;;;;;;5087281;28;20232;-69
2021/05/11 00:15:03;;;;;;;2.33;2.13;;;15.50;99.90;;;;;;5096009;28;20393;-69
2021/05/11 00:17:29;;;;;;;2.47;2.27;;;15.40;99.90;;;;;;5084495;28;20168;-69
2021/05/11 00:19:54;;;;;;;2.60;2.40;;;15.50;99.90;;;;;;5084660;28;20436;-69
2021/05/11 00:22:20;;;;;;;3.10;2.80;;;15.40;99.90;;;;;;5095444;28;20205;-69
2021/05/11 00:24:45;;;;;;;2.57;2.37;;;15.30;99.90;;;;;;5094638;28;20286;-69
2021/05/11 00:27:11;;;;;;;4.30;2.40;;;15.00;99.90;;;;;;5089989;28;20168;-69
2021/05/11 00:29:36;;;;;;;2.70;2.40;;;15.30;99.90;;;;;;5095792;28;20160;-69
2021/05/11 00:32:02;;;;;;;3.30;3.00;;;15.10;99.90;;;;;;5094910;28;20171;-69
2021/05/11 00:34:27;;;;;;;3.70;3.40;;;15.10;99.90;;;;;;5095099;28;20159;-69
2021/05/11 00:36:53;;;;;;;3.50;3.20;;;15.00;99.90;;;;;;5094169;28;20155;-69
2021/05/11 00:39:19;;;;;;;3.67;3.37;;;15.00;99.90;;;;;;5095074;28;20257;-69
2021/05/11 00:41:44;;;;;;;3.47;3.10;;;14.90;99.90;;;;;;5090398;28;20167;-69
2021/05/11 00:44:27;;;;;;;3.90;3.57;;;14.70;99.90;;;;;;5087699;28;20209;-69
2021/05/11 00:46:57;;;;;;;4.47;4.07;;;14.70;99.90;;;;;;5094619;28;20176;-69
2021/05/11 00:49:24;;;;;;;3.80;3.50;;;14.70;99.90;;;;;;5094975;28;20398;-69
2021/05/11 00:51:50;;;;;;;6.10;4.20;;;14.70;99.90;;;;;;5089482;28;20491;-69
2021/05/11 00:54:17;;;;;;;3.77;3.47;;;14.70;99.90;;;;;;5083168;28;20417;-69
2021/05/11 00:56:44;;;;;;;6.70;3.80;;;14.70;99.90;;;;;;5094969;28;20390;-69
2021/05/11 00:59:16;;;;;;;4.30;4.00;;;14.60;99.90;;;;;;5091140;28;21019;-69
2021/05/11 01:01:41;;;;;;;3.77;3.37;;;14.70;99.90;;;;;;5086779;28;20490;-69
2021/05/11 01:04:07;;;;;;;5.07;4.47;;;14.60;99.90;;;;;;5094372;28;20398;-69
2021/05/11 01:06:32;;;;;;;4.50;4.10;;;14.60;99.90;;;;;;5082854;28;20179;-69
2021/05/11 01:08:58;;;;;;;4.30;3.70;;;14.60;99.90;;;;;;5093517;28;20208;-69
2021/05/11 01:11:24;;;;;;;4.50;4.10;;;14.60;99.90;;;;;;5094500;28;20166;-69
2021/05/11 01:13:49;;;;;;;3.93;3.63;;;14.60;99.90;;;;;;5094445;28;20154;-69
2021/05/11 01:16:15;;;;;;;4.57;4.17;;;14.50;99.90;;;;;;5093936;28;20247;-69
2021/05/11 01:18:41;;;;;;;3.70;3.40;;;14.50;99.90;;;;;;5091479;28;20194;-69
2021/05/11 01:21:25;;;;;;;4.20;3.90;;;14.50;99.90;;;;;;5092511;28;20504;-69
2021/05/11 02:22:35;;;;;;;4.27;3.97;;;14.30;99.90;;;;;;5110098;27;20518;-68
2021/05/11 02:23:50;;;;;;;4.33;4.03;;;14.30;99.90;;;;;;5089170;28;20394;-69
2021/05/11 02:26:16;;;;;;;4.10;3.80;;;14.30;99.90;;;;;;5077701;28;20940;-69
2021/05/11 02:28:41;;;;;;;4.77;4.00;;;14.30;99.90;;;;;;5110601;28;20241;-69
2021/05/11 02:31:07;;;;;;;4.70;4.20;;;14.30;99.90;;;;;;5110326;28;20572;-69
2021/05/11 02:33:32;;;;;;;4.07;3.77;;;14.30;99.90;;;;;;5090602;28;20185;-69
2021/05/11 02:35:58;;;;;;;4.37;3.97;;;14.30;99.90;;;;;;5090176;28;20249;-68
2021/05/11 02:38:23;;;;;;;5.30;4.90;;;14.30;99.90;;;;;;5090643;28;20206;-69
2021/05/11 02:40:49;;;;;;;4.57;4.17;;;14.30;99.90;;;;;;5090001;28;20167;-68
2021/05/11 02:43:18;;;;;;;4.63;4.33;;;14.30;99.90;;;;;;5077204;28;20168;-68
2021/05/11 02:45:44;;;;;;;4.20;3.90;;;14.30;99.90;;;;;;5070427;28;20155;-68
2021/05/11 02:48:09;;;;;;;5.13;4.73;;;14.30;99.90;;;;;;5102657;28;20424;-68
2021/05/11 02:50:35;;;;;;;5.13;4.70;;;14.20;99.90;;;;;;5110264;28;20165;-68
2021/05/11 02:53:02;;;;;;;4.93;4.47;;;14.20;99.90;;;;;;5094695;28;20163;-68
2021/05/11 02:55:28;;;;;;;5.93;5.40;;;14.20;99.90;;;;;;5089777;28;20899;-68
2021/05/11 02:57:54;;;;;;;6.00;5.50;;;14.20;99.90;;;;;;5090141;28;20453;-68
2021/05/11 03:00:21;;;;;;;5.63;5.13;;;14.20;99.90;;;;;;5074726;28;20528;-68
2021/05/11 03:02:47;;;;;;;6.17;5.67;;;14.20;99.90;;;;;;5096179;28;20419;-69
2021/05/11 03:05:14;;;;;;;6.20;5.60;;;14.20;99.90;;;;;;5109841;28;20765;-69
2021/05/11 03:07:40;;;;;;;5.93;5.53;;;14.20;99.90;;;;;;5096905;28;20179;-68
2021/05/11 03:10:08;;;;;;;6.60;6.00;;;14.20;99.90;;;;;;5089599;28;20448;-68
2021/05/11 03:12:34;;;;;;;6.63;6.03;;;14.20;99.90;;;;;;5099203;28;20168;-69
2021/05/11 03:14:59;;;;;;;6.87;6.27;;;14.20;99.90;;;;;;5107098;28;20417;-69
2021/05/11 03:17:26;;;;;;;7.77;6.03;;;14.20;99.90;;;;;;5073341;28;20495;-68
2021/05/11 03:19:52;;;;;;;6.53;6.03;;;14.10;99.90;;;;;;5072171;28;20184;-68
2021/05/11 03:22:17;;;;;;;5.73;5.27;;;14.10;99.90;;;;;;5100119;28;20472;-68
2021/05/11 03:24:44;;;;;;;5.77;5.20;;;14.10;99.90;;;;;;5089536;28;20178;-68
2021/05/11 03:27:11;;;;;;;7.73;6.70;;;14.10;99.90;;;;;;5096876;28;20166;-68
2021/05/11 03:29:38;;;;;;;7.00;6.30;;;14.10;99.90;;;;;;5096229;28;20752;-69
2021/05/11 03:32:04;;;;;;;6.90;6.30;;;14.10;99.90;;;;;;5088219;28;20406;-68
2021/05/11 03:34:29;;;;;;;5.97;5.50;;;14.10;99.90;;;;;;5059443;28;20418;-69
2021/05/11 03:36:55;;;;;;;6.40;5.80;;;14.10;99.90;;;;;;5067796;28;20582;-68
2021/05/11 03:39:21;;;;;;;6.67;6.07;;;14.10;99.90;;;;;;5095817;28;20151;-69
2021/05/11 03:41:51;;;;;;;6.87;5.93;;;14.10;99.90;;;;;;5090042;28;20171;-69
2021/05/11 03:44:20;;;;;;;7.27;6.53;;;14.10;99.90;;;;;;5075452;28;20237;-69
2021/05/11 03:46:46;;;;;;;6.63;6.03;;;14.10;99.90;;;;;;5080208;28;20507;-69
2021/05/11 03:49:11;;;;;;;7.20;6.60;;;14.10;99.90;;;;;;5094627;28;20851;-69
2021/05/11 03:51:38;;;;;;;7.07;6.47;;;14.10;99.90;;;;;;5058430;28;20194;-69
2021/05/11 03:54:05;;;;;;;7.57;6.87;;;14.10;99.90;;;;;;5055525;28;20180;-68
2021/05/11 03:56:31;;;;;;;7.60;6.90;;;14.10;99.90;;;;;;5091426;28;20459;-68
2021/05/11 03:58:57;;;;;;;7.60;6.90;;;14.10;99.90;;;;;;5075067;28;20429;-68
2021/05/11 04:01:22;;;;;;;7.00;6.47;;;14.20;99.90;;;;;;5075153;28;20175;-69
2021/05/11 04:03:48;;;;;;;7.40;6.70;;;14.20;99.90;;;;;;5074721;28;20910;-68
2021/05/11 04:06:14;;;;;;;8.60;7.77;;;14.10;99.90;;;;;;5075111;28;20258;-68
2021/05/11 04:16:43;;;;;;;8.37;7.67;;;14.20;99.90;;;;;;5126026;28;20773;-67
2021/05/11 04:19:09;;;;;;;8.07;7.37;;;14.20;99.90;;;;;;5110761;28;20729;-67
2021/05/11 04:21:35;;;;;;;7.93;7.13;;;14.20;99.90;;;;;;5113988;28;20415;-68
2021/05/11 04:24:01;;;;;;;7.63;6.93;;;14.20;99.90;;;;;;5127389;28;20838;-67
2021/05/11 04:26:27;;;;;;;9.93;7.57;;;14.20;99.90;;;;;;5111128;28;20431;-67
2021/05/11 04:28:53;;;;;;;7.67;6.87;;;14.20;99.90;;;;;;5110901;28;20377;-67
2021/05/11 04:31:19;;;;;;;7.43;6.77;;;14.20;99.90;;;;;;5112041;28;20690;-67
2021/05/11 04:33:46;;;;;;;8.03;7.33;;;14.20;99.90;;;;;;5130912;28;20439;-67
2021/05/11 04:36:14;;;;;;;7.80;7.10;;;14.20;99.90;;;;;;5130941;28;20388;-67
2021/05/11 04:38:40;;;;;;;7.70;7.10;;;14.20;99.90;;;;;;5110311;28;20401;-67
2021/05/11 04:41:06;;;;;;;9.17;8.30;;;14.20;99.90;;;;;;5111755;28;20408;-68
2021/05/11 04:43:34;;;;;;;9.67;8.80;;;14.20;99.90;;;;;;5110703;28;20314;-67
2021/05/11 04:46:08;;;;;;;9.90;9.10;;;14.20;99.90;;;;;;5110053;28;20491;-67
2021/05/11 04:48:34;;;;;;;8.90;8.00;;;14.10;99.90;;;;;;5110329;28;20407;-68
2021/05/11 04:51:00;;;;;;;8.17;6.97;;;14.10;99.90;;;;;;5110551;28;20389;-68
2021/05/11 04:53:26;;;;;;;5.90;5.30;;;14.10;99.90;;;;;;5110452;28;20447;-68
2021/05/11 04:55:51;;;;;;;6.13;5.60;;;14.10;99.90;;;;;;5110254;28;20611;-67
2021/05/11 04:58:17;;;;;;;7.87;5.73;;;14.10;99.90;;;;;;5116200;28;20174;-68
2021/05/11 05:00:42;;;;;;;7.70;5.10;;;14.10;99.90;;;;;;5130441;28;20157;-68
2021/05/11 05:03:12;;;;;;;6.30;5.80;;;14.10;99.90;;;;;;5113896;28;20208;-67
2021/05/11 05:05:37;;;;;;;6.73;5.30;;;14.10;99.90;;;;;;5109973;28;20257;-68
2021/05/11 05:08:03;;;;;;;6.83;4.03;;;14.10;99.90;;;;;;5109839;28;20996;-67
2021/05/11 05:10:28;;;;;;;5.77;4.30;;;14.20;99.90;;;;;;5110093;28;20159;-68
2021/05/11 05:12:54;;;;;;;4.37;3.97;;;14.20;99.90;;;;;;5109528;28;20255;-68
2021/05/11 05:15:19;;;;;;;5.50;3.53;;;14.20;99.90;;;;;;5115587;28;20169;-68
2021/05/11 05:17:45;;;;;;;4.63;3.40;;;14.20;99.90;;;;;;5129973;28;20249;-67
2021/05/11 05:20:11;;;;;;;4.73;4.03;;;14.20;99.90;;;;;;5130814;28;20146;-68
2021/05/11 05:22:37;;;;;;;4.90;3.97;;;14.20;99.90;;;;;;5129356;28;20181;-67
2021/05/11 05:25:22;;;;;;;3.67;3.37;;;14.30;99.90;;;;;;5118219;27;20484;-67
2021/05/11 05:27:56;;;;;;;10.13;4.13;;;14.30;99.90;;;;;;5102519;28;20415;-68
2021/05/11 05:30:23;;;;;;;3.77;3.40;;;14.30;99.90;;;;;;5096086;28;20774;-67
2021/05/11 05:32:48;;;;;;;4.37;3.93;;;14.30;99.90;;;;;;5096279;28;20456;-68
2021/05/11 05:35:14;;;;;;;10.40;5.10;;;14.30;99.90;;;;;;5096013;28;20412;-67
2021/05/11 05:37:39;;;;;;;5.60;4.07;;;14.40;99.90;;;;;;5095761;28;20170;-68
2021/05/11 05:40:08;;;;;;;4.70;3.60;;;14.40;99.90;;;;;;5095878;28;20193;-67
2021/05/11 05:42:34;;;;;;;4.70;3.70;;;14.40;99.90;;;;;;5096841;28;20187;-67
2021/05/11 05:44:59;;;;;;;6.63;4.57;;;14.40;99.90;;;;;;5095922;28;20416;-68
2021/05/11 05:47:25;;;;;;;7.10;3.40;;;14.40;99.90;;;;;;5107659;28;20264;-68
2021/05/11 05:49:58;;;;;;;6.07;4.13;;;14.50;99.90;;;;;;5105437;28;20182;-68
2021/05/11 05:52:34;;;;;;;5.87;3.60;;;14.50;99.90;;;;;;5106127;28;20221;-68
2021/05/11 05:54:59;;;;;;;3.63;2.57;;;14.50;99.90;;;;;;5116077;28;20396;-67
2021/05/11 05:57:25;;;;;;;7.00;3.93;;;14.40;99.90;;;;;;5104028;27;20419;-68
2021/05/11 05:59:51;;;;;;;5.30;3.10;;;14.40;99.90;;;;;;5095513;28;20190;-67
2021/05/11 06:02:18;;;;;;;3.90;3.10;;;14.40;99.90;;;;;;5105285;28;20182;-68
2021/05/11 06:04:44;;;;;;;5.30;3.80;;;14.50;99.90;;;;;;5115880;28;20154;-67
2021/05/11 06:07:10;;;;;;;4.70;3.40;;;14.50;99.90;;;;;;5101925;28;20444;-68
2021/05/11 06:09:36;;;;;;;5.17;3.87;;;14.60;99.90;;;;;;5095240;28;20615;-68
2021/05/11 06:12:07;;;;;;;6.03;3.57;;;14.80;99.90;;;;;;5100869;27;20467;-68
2021/05/11 06:17:24;;;;;;;4.60;4.20;;;15.00;99.90;;;;;;5078815;27;20583;-69
2021/05/11 06:19:52;;;;;;;6.07;4.30;;;15.10;99.90;;;;;;5070395;28;20383;-69
2021/05/11 06:22:18;;;;;;;6.70;4.00;;;15.10;99.90;;;;;;5069960;28;20177;-69
2021/05/11 06:24:44;;;;;;;6.63;4.63;;;15.20;99.90;;;;;;5076668;28;20402;-69
2021/05/11 06:27:12;;;;;;;8.30;4.70;;;15.20;99.90;;;;;;5081027;28;20407;-69
2021/05/11 06:29:40;;;;;;;6.03;4.03;;;15.20;99.90;;;;;;5069705;28;20419;-69
2021/05/11 06:32:07;;;;;;;5.37;4.87;;;15.30;99.90;;;;;;5070510;28;20918;-69
2021/05/11 06:34:33;;;;;;;5.40;4.40;;;15.30;99.90;;;;;;5069386;28;20398;-69
2021/05/11 06:37:01;;;;;;;6.00;5.43;;;15.30;99.90;;;;;;5068014;28;20873;-69
2021/05/11 06:39:27;;;;;;;6.97;4.73;;;15.30;99.90;;;;;;5068636;28;20972;-69
2021/05/11 06:41:56;;;;;;;11.33;5.03;;;15.30;99.90;;;;;;5068635;28;20421;-69
2021/05/11 06:44:41;;;;;;;6.00;4.80;;;15.30;99.90;;;;;;5067800;28;20403;-69
2021/05/11 06:50:13;;;;;;;6.67;5.40;;;15.30;99.90;;;;;;5066754;28;20419;-69
2021/05/11 06:52:45;;;;;;;5.83;4.77;;;15.40;99.90;;;;;;5066080;28;20436;-69
2021/05/11 06:55:14;;;;;;;7.50;5.90;;;15.40;99.90;;;;;;5063719;28;20510;-69
2021/05/11 06:57:40;;;;;;;6.83;5.40;;;15.40;99.90;;;;;;5059883;28;20425;-69
2021/05/11 07:00:06;;;;;;;6.20;5.40;;;15.50;99.90;;;;;;5061444;28;20431;-69
2021/05/11 07:02:32;;;;;;;9.13;6.90;;;15.60;99.90;;;;;;5064633;28;20177;-69
2021/05/11 07:04:57;;;;;;;11.27;7.97;;;15.70;99.90;;;;;;5063475;28;20404;-69
2021/05/11 07:07:23;;;;;;;9.27;8.17;;;15.70;99.90;;;;;;5058897;28;20801;-69
2021/05/11 07:15:21;;;;;;;11.97;10.00;;;16.00;99.90;;;;;;5084409;28;20453;-69
2021/05/11 07:17:46;;;;;;;10.27;9.27;;;16.00;99.90;;;;;;5062260;28;20918;-69
2021/05/11 07:20:12;;;;;;;12.03;10.80;;;16.00;99.90;;;;;;5059430;28;20420;-69
2021/05/11 07:22:38;;;;;;;12.30;11.00;;;16.00;99.90;;;;;;5059213;28;20175;-69
2021/05/11 07:25:08;;;;;;;11.07;9.30;;;16.00;99.90;;;;;;5066688;28;20410;-69
2021/05/11 07:28:04;;;;;;;13.43;9.87;;;16.00;99.90;;;;;;5059256;28;20639;-69
2021/05/11 07:30:27;;;;;;;9.50;8.60;;;16.00;99.90;;;;;;5053277;28;20400;-69
2021/05/11 07:32:53;;;;;;;10.03;9.13;;;16.00;99.90;;;;;;5052161;28;20475;-69
2021/05/11 07:35:19;;;;;;;9.17;8.27;;;16.00;99.90;;;;;;5052088;28;20452;-69
2021/05/11 07:37:44;;;;;;;8.90;8.10;;;16.00;99.90;;;;;;5053928;28;20268;-69
2021/05/11 07:40:11;;;;;;;7.60;6.83;;;16.00;99.90;;;;;;5053419;28;20180;-69
2021/05/11 07:42:36;;;;;;;6.93;6.23;;;16.00;99.90;;;;;;5048556;28;20188;-69
2021/05/11 07:45:04;;;;;;;8.53;7.80;;;16.10;99.90;;;;;;5054294;28;20408;-69
2021/05/11 07:50:27;;;;;;;8.80;7.77;;;16.10;99.90;;;;;;5121794;27;20515;-69
2021/05/11 07:56:41;;;;;;;8.93;8.23;;;16.20;99.90;;;;;;5106089;28;20386;-69
2021/05/11 08:15:04;;;;;;;8.80;5.97;;;18.00;99.90;;;;;;5098165;28;20445;-69
2021/05/11 08:17:33;;;;;;;6.20;4.90;;;18.10;99.90;;;;;;5103865;28;20419;-69
2021/05/11 08:20:10;;;;;;;11.03;5.17;;;18.00;99.90;;;;;;5107803;28;20498;-69
2021/05/11 08:28:00;;;;;;;10.80;5.43;;;17.80;99.90;;;;;;5121388;28;20469;-68
2021/05/11 08:30:27;;;;;;;6.70;4.93;;;17.70;99.90;;;;;;5112412;28;20408;-68
2021/05/11 08:32:53;;;;;;;8.93;5.77;;;17.60;99.90;;;;;;5105250;28;20412;-68
2021/05/11 08:35:19;;;;;;;6.40;4.50;;;17.60;99.90;;;;;;5109168;28;20470;-68
2021/05/11 08:37:44;;;;;;;5.40;4.57;;;17.50;99.90;;;;;;5092394;28;20458;-68
2021/05/11 08:40:10;;;;;;;7.43;5.20;;;17.50;99.90;;;;;;5090049;28;20438;-68
2021/05/11 08:42:36;;;;;;;6.57;4.90;;;17.50;99.90;;;;;;5101840;28;20777;-68
2021/05/11 08:45:07;;;;;;;7.27;5.90;;;17.50;99.90;;;;;;5089456;28;20463;-68
2021/05/11 08:47:35;;;;;;;5.87;4.63;;;17.60;99.90;;;;;;5093443;28;20159;-68
2021/05/11 08:50:01;;;;;;;8.27;4.93;;;17.60;99.90;;;;;;5099597;28;20940;-68
2021/05/11 08:52:45;;;;;;;6.37;4.93;;;17.60;99.90;;;;;;5093859;28;20413;-68
2021/05/11 08:55:31;;;;;;;5.27;4.77;;;17.60;99.90;;;;;;5088970;28;20397;-68
2021/05/11 09:06:36;;;;;;;7.50;6.30;;;17.10;99.90;;;;;;5070805;28;20421;-68
2021/05/11 09:09:23;;;;;;;10.87;6.70;;;17.00;99.90;;;;;;5081916;28;20420;-68
2021/05/11 09:25:45;;;;;;;6.20;5.00;;;18.10;99.90;;;;;;5099960;28;20377;-69
2021/05/11 09:28:36;;;;;;;6.73;5.40;;;18.40;99.90;;;;;;5086172;28;20403;-69
2021/05/11 09:34:07;;;;;;;5.40;4.90;;;19.10;99.90;;;;;;5089031;27;20935;-69
2021/05/11 10:49:32;;;;;;;4.87;4.17;;;16.90;99.90;;;;;;5079112;28;20524;-68
2021/05/11 10:52:14;;;;;;;7.17;3.83;;;16.80;99.90;;;;;;5077785;28;20407;-68
2021/05/11 10:54:45;;;;;;;4.43;4.03;;;16.80;99.90;;;;;;5077188;28;20409;-68
2021/05/11 10:57:42;;;;;;;4.53;3.87;;;16.70;99.90;;;;;;5072429;28;20402;-68
2021/05/11 11:03:15;;;;;;;5.47;4.60;;;16.70;99.90;;;;;;5098110;27;20518;-69
2021/05/11 11:05:51;;;;;;;5.53;4.80;;;16.70;99.90;;;;;;5086283;28;20416;-69
2021/05/11 11:08:37;;;;;;;6.27;4.60;;;16.60;99.90;;;;;;5088083;28;20400;-69
2021/05/11 11:16:21;;;;;;;6.43;4.10;;;16.60;99.90;;;;;;5086991;27;20527;-69
2021/05/11 11:18:48;;;;;;;6.10;5.37;;;16.50;99.90;;;;;;5087008;28;20513;-69
2021/05/11 11:21:35;;;;;;;5.70;4.87;;;16.50;99.90;;;;;;5075261;28;20600;-69
2021/05/11 11:24:00;;;;;;;6.00;5.40;;;16.40;99.90;;;;;;5080059;28;20833;-69
2021/05/11 11:31:42;;;;;;;7.67;7.07;;;16.20;99.90;;;;;;5086970;27;21060;-68
2021/05/11 11:34:17;;;;;;;12.03;10.27;;;16.00;99.90;;;;;;5080146;28;20471;-68
2021/05/11 11:36:48;;;;;;;10.60;9.50;;;15.90;99.90;;;;;;5080792;28;20404;-68
2021/05/11 11:39:19;;;;;;;11.90;9.83;;;15.90;99.90;;;;;;5075542;28;20428;-68
2021/05/11 11:41:46;;;;;;;9.10;8.23;;;15.80;99.90;;;;;;5080907;28;20394;-68
2021/05/11 11:44:17;;;;;;;10.30;8.07;;;15.80;99.90;;;;;;5075224;28;20770;-68
2021/05/11 11:46:44;;;;;;;9.63;8.77;;;15.70;99.90;;;;;;5076637;28;20513;-68
2021/05/11 11:49:17;;;;;;;8.93;8.13;;;15.70;99.90;;;;;;5073360;28;20394;-68
2021/05/11 11:51:42;;;;;;;8.67;7.70;;;15.70;99.90;;;;;;5073344;28;20941;-68
2021/05/11 11:54:19;;;;;;;11.10;8.60;;;15.70;99.90;;;;;;5080528;28;20397;-68
2021/05/11 11:59:30;;;;;;;9.80;8.87;;;15.60;99.90;;;;;;5093618;28;20475;-68
2021/05/11 12:01:59;;;;;;;11.50;9.17;;;15.60;99.90;;;;;;5077335;28;20445;-68
2021/05/11 12:04:25;;;;;;;10.03;8.80;;;15.50;99.90;;;;;;5073433;28;20215;-68
2021/05/11 12:06:51;;;;;;;14.00;9.83;;;15.50;99.90;;;;;;5077479;28;20440;-68
2021/05/11 12:09:18;;;;;;;11.63;10.10;;;15.50;99.90;;;;;;5075419;28;20221;-68
2021/05/11 12:11:44;;;;;;;14.00;9.27;;;15.50;99.90;;;;;;5077841;28;20513;-68
2021/05/11 12:14:11;;;;;;;9.80;8.90;;;15.50;99.90;;;;;;5073608;28;20970;-68
2021/05/11 12:16:42;;;;;;;11.00;9.40;;;15.50;99.90;;;;;;5082523;28;20208;-68
2021/05/11 12:24:29;;;;;;;10.00;7.60;;;15.90;99.90;;;;;;5111071;27;20502;-69
2021/05/11 12:27:19;;;;;;;7.10;6.60;;;16.10;99.90;;;;;;5110957;28;20395;-69
2021/05/11 12:30:06;;;;;;;8.83;7.33;;;16.40;99.90;;;;;;5089767;28;20413;-68
2021/05/11 12:32:33;;;;;;;6.80;6.23;;;16.60;99.90;;;;;;5104456;28;20412;-69
2021/05/11 12:35:15;;;;;;;6.80;6.20;;;16.70;99.90;;;;;;5091238;28;20408;-69
2021/05/11 12:43:01;;;;;;;7.77;5.67;;;17.00;99.90;;;;;;5100790;27;21039;-69
2021/05/11 12:45:31;;;;;;;5.77;5.17;;;17.00;99.90;;;;;;5095069;28;20562;-69
2021/05/11 12:48:00;;;;;;;6.10;5.10;;;17.00;99.90;;;;;;5094280;28;20405;-69
2021/05/11 12:50:31;;;;;;;6.03;5.50;;;17.10;99.90;;;;;;5093808;28;20405;-69
2021/05/11 12:53:02;;;;;;;7.80;6.43;;;17.10;99.90;;;;;;5095574;28;20444;-69
2021/05/11 12:56:18;;;;;;;7.70;5.53;;;17.10;99.90;;;;;;5094348;28;20413;-69
2021/05/11 13:01:57;;;;;;;5.37;4.20;;;17.10;99.90;;;;;;5098131;28;20454;-69
2021/05/11 13:21:14;;;;;;;5.73;4.97;;;16.50;99.90;;;;;;5090653;28;20503;-69
2021/05/11 13:26:33;;;;;;;6.00;5.40;;;16.20;99.90;;;;;;5111022;27;20509;-69
2021/05/11 13:29:14;;;;;;;5.87;5.20;;;16.10;99.90;;;;;;5099084;28;20397;-68
2021/05/11 13:31:44;;;;;;;8.10;5.90;;;16.00;99.90;;;;;;5091457;28;20861;-69
2021/05/11 13:34:12;;;;;;;9.37;5.93;;;15.80;99.90;;;;;;5090660;28;20385;-68
2021/05/11 13:36:41;;;;;;;7.37;5.90;;;15.70;99.90;;;;;;5090360;28;20384;-68
2021/05/11 13:39:08;;;;;;;8.10;6.23;;;15.50;99.90;;;;;;5090303;28;20381;-68
2021/05/11 13:41:34;;;;;;;8.37;6.93;;;15.50;99.90;;;;;;5090198;28;20735;-68
2021/05/11 13:44:00;;;;;;;13.03;8.50;;;15.30;99.90;;;;;;5090072;28;20393;-68
2021/05/11 13:46:26;;;;;;;8.50;7.70;;;15.20;99.90;;;;;;5091040;28;20181;-68
2021/05/11 13:48:52;;;;;;;8.57;7.77;;;15.10;99.90;;;;;;5089898;28;20985;-68
2021/05/11 13:51:19;;;;;;;10.23;7.50;;;15.00;99.90;;;;;;5090012;28;20496;-68
2021/05/11 13:53:49;;;;;;;8.30;7.60;;;14.90;99.90;;;;;;5089963;28;20604;-68
2021/05/11 13:56:22;;;;;;;10.40;8.23;;;14.80;99.90;;;;;;5089808;28;20965;-68
2021/05/11 14:04:12;;;;;;;17.47;10.67;;;14.80;99.90;;;;;;5090539;27;20502;-67
2021/05/11 14:06:37;;;;;;;12.17;10.70;;;14.80;99.90;;;;;;5090343;28;20725;-67
2021/05/11 14:09:04;;;;;;;15.17;13.13;;;14.80;99.90;;;;;;5090380;28;20159;-68
2021/05/11 14:11:31;;;;;;;14.80;12.50;;;14.80;99.90;;;;;;5090428;28;20216;-68
2021/05/11 14:13:57;;;;;;;11.90;10.70;;;14.70;99.90;;;;;;5090661;28;20385;-68
2021/05/11 14:16:23;;;;;;;12.53;10.57;;;14.60;99.90;;;;;;5090603;28;20420;-68
2021/05/11 14:18:49;;;;;;;11.27;10.13;;;14.50;99.90;;;;;;5089551;28;20385;-68
2021/05/11 14:21:14;;;;;;;9.80;8.80;;;14.50;99.90;;;;;;5090366;28;20224;-68
2021/05/11 14:23:41;;;;;;;11.70;10.00;;;14.50;99.90;;;;;;5090130;28;20664;-68
2021/05/11 14:26:06;;;;;;;10.10;9.10;;;14.40;99.90;;;;;;5090103;28;20159;-68
2021/05/11 14:28:32;;;;;;;9.73;8.83;;;14.40;99.90;;;;;;5090533;28;20393;-68
2021/05/11 14:30:58;;;;;;;9.23;7.67;;;14.50;99.90;;;;;;5090128;28;20171;-68
2021/05/11 14:33:23;;;;;;;9.40;8.53;;;14.50;99.90;;;;;;5090293;28;20293;-68
2021/05/11 14:35:49;;;;;;;8.60;7.80;;;14.50;99.90;;;;;;5089138;28;20262;-68
2021/05/11 14:38:15;;;;;;;9.93;8.13;;;14.60;99.90;;;;;;5089781;28;20574;-68
2021/05/11 14:40:40;;;;;;;11.20;10.20;;;14.60;99.90;;;;;;5090097;28;20645;-68
2021/05/11 14:43:06;;;;;;;14.50;13.20;;;14.60;99.90;;;;;;5090112;28;20201;-68
2021/05/11 14:45:31;;;;;;;16.00;14.30;;;14.70;99.90;;;;;;5090075;28;20587;-68
2021/05/11 14:47:57;;;;;;;19.07;17.10;;;14.60;99.90;;;;;;5089447;28;20565;-68
2021/05/11 14:50:24;;;;;;;20.83;18.00;;;14.60;99.90;;;;;;5089546;28;20242;-68
2021/05/11 14:52:54;;;;;;;19.83;17.73;;;14.60;99.90;;;;;;5088892;28;20420;-68
2021/05/11 14:55:24;;;;;;;21.00;18.00;;;14.60;99.90;;;;;;5089753;28;20419;-68
2021/05/11 14:57:51;;;;;;;20.97;18.37;;;14.60;99.90;;;;;;5090333;28;20389;-68
2021/05/11 15:00:17;;;;;;;21.50;19.43;;;14.60;99.90;;;;;;5089900;28;20997;-68
2021/05/11 15:02:43;;;;;;;20.57;18.50;;;14.70;99.90;;;;;;5089319;28;20452;-68
2021/05/11 15:05:09;;;;;;;23.07;19.60;;;14.80;99.90;;;;;;5089486;28;20382;-68
2021/05/11 15:07:34;;;;;;;24.17;21.67;;;14.90;99.90;;;;;;5089460;28;20155;-68
2021/05/11 15:10:00;;;;;;;24.80;22.10;;;15.00;99.90;;;;;;5088430;28;20813;-68
2021/05/11 15:12:25;;;;;;;26.60;21.60;;;14.90;99.90;;;;;;5089737;28;20155;-68
2021/05/11 15:14:51;;;;;;;22.40;19.87;;;14.90;99.90;;;;;;5079763;28;20228;-68
2021/05/11 15:20:00;;;;;;;21.93;19.83;;;15.00;99.90;;;;;;5111022;27;20505;-69
2021/05/11 15:22:27;;;;;;;23.33;20.77;;;15.00;99.90;;;;;;5110827;28;20442;-69
2021/05/11 15:24:54;;;;;;;23.17;21.00;;;15.20;99.90;;;;;;5110919;28;20655;-69
2021/05/11 15:27:20;;;;;;;24.67;22.40;;;15.20;99.90;;;;;;5104991;28;20510;-69
2021/05/11 15:29:46;;;;;;;23.67;21.43;;;15.30;99.90;;;;;;5090517;28;20381;-69
2021/05/11 15:32:52;;;;;;;23.87;21.53;;;15.30;99.90;;;;;;5090199;28;20381;-69
2021/05/11 15:35:19;;;;;;;22.63;20.53;;;15.20;99.90;;;;;;5078341;28;20679;-69
2021/05/11 15:37:52;;;;;;;24.97;22.67;;;15.20;99.90;;;;;;5090149;28;20916;-69
2021/05/11 15:40:18;;;;;;;25.53;23.00;;;15.20;99.90;;;;;;5090938;28;20389;-69
2021/05/11 15:42:44;;;;;;;25.03;22.60;;;15.20;99.90;;;;;;5090939;28;20390;-69
2021/05/11 15:45:10;;;;;;;22.67;20.50;;;15.10;99.90;;;;;;5090710;28;20932;-69
2021/05/11 15:47:38;;;;;;;24.00;21.57;;;15.10;99.90;;;;;;5090025;28;20237;-69
2021/05/11 15:50:05;;;;;;;25.60;22.90;;;15.00;99.90;;;;;;5090033;28;20761;-69
2021/05/11 15:52:31;;;;;;;24.33;21.90;;;15.00;99.90;;;;;;5090656;28;20412;-69
2021/05/11 15:54:56;;;;;;;23.63;21.27;;;15.00;99.90;;;;;;5090222;28;20389;-69
2021/05/11 15:57:22;;;;;;;24.90;22.60;;;15.00;99.90;;;;;;5090644;28;20163;-69
2021/05/11 15:59:48;;;;;;;27.50;24.53;;;14.90;99.90;;;;;;5089618;28;20206;-69
2021/05/11 16:02:13;;;;;;;28.20;25.17;;;14.90;99.90;;;;;;5090299;28;20174;-69
2021/05/11 16:04:39;;;;;;;27.87;23.60;;;14.80;99.90;;;;;;5089770;28;20144;-69
2021/05/11 16:07:05;;;;;;;30.17;24.53;;;14.80;99.90;;;;;;5089544;28;20201;-69
2021/05/11 16:09:30;;;;;;;30.30;25.40;;;14.80;99.90;;;;;;5090020;28;20528;-69
2021/05/11 16:11:57;;;;;;;31.50;26.03;;;14.70;99.90;;;;;;5089799;28;20152;-69
2021/05/11 16:14:22;;;;;;;28.07;25.27;;;14.60;99.90;;;;;;5089640;28;20159;-69
2021/05/11 16:16:48;;;;;;;29.47;26.13;;;14.70;99.90;;;;;;5089353;28;20462;-69
2021/05/11 16:19:13;;;;;;;30.47;26.07;;;14.60;99.90;;;;;;5102924;28;20210;-69
2021/05/11 16:21:39;;;;;;;30.57;25.90;;;14.70;99.90;;;;;;5110390;28;20193;-69
2021/05/11 16:24:05;;;;;;;28.17;25.17;;;14.70;99.90;;;;;;5110004;28;20143;-69
2021/05/11 16:26:31;;;;;;;29.40;26.40;;;14.60;99.90;;;;;;5109800;28;20399;-69
2021/05/11 16:28:57;;;;;;;30.00;26.27;;;14.60;99.90;;;;;;5109401;28;20400;-69
2021/05/11 16:31:23;;;;;;;29.87;26.57;;;14.60;99.90;;;;;;5096190;28;20916;-69
2021/05/11 16:33:50;;;;;;;28.53;25.43;;;14.60;99.90;;;;;;5095991;28;20163;-69
2021/05/11 16:36:18;;;;;;;30.07;26.70;;;14.50;99.90;;;;;;5096692;28;20416;-68
2021/05/11 16:38:44;;;;;;;33.23;26.13;;;14.60;99.90;;;;;;5096006;28;20969;-68
2021/05/11 16:41:10;;;;;;;32.50;26.97;;;14.60;99.90;;;;;;5096032;28;20389;-69
2021/05/11 16:43:36;;;;;;;34.37;27.23;;;14.60;99.90;;;;;;5096017;28;20194;-68
2021/05/11 16:46:04;;;;;;;31.73;28.20;;;14.60;99.90;;;;;;5095482;28;20409;-68
2021/05/11 16:48:31;;;;;;;31.37;26.40;;;14.60;99.90;;;;;;5095963;28;20183;-68
2021/05/11 16:50:57;;;;;;;31.60;28.20;;;14.60;99.90;;;;;;5096256;28;20397;-68
2021/05/11 16:53:23;;;;;;;32.37;27.50;;;14.60;99.90;;;;;;5095373;28;20412;-68
2021/05/11 16:55:49;;;;;;;32.27;25.83;;;14.60;99.90;;;;;;5095704;28;20450;-68
2021/05/11 16:58:14;;;;;;;38.20;27.90;;;14.60;99.90;;;;;;5095502;28;20200;-68
2021/05/11 17:00:41;;;;;;;35.23;27.50;;;14.60;99.90;;;;;;5095609;28;20187;-68
2021/05/11 17:03:07;;;;;;;37.90;28.47;;;14.70;99.90;;;;;;5095410;28;20159;-69
2021/05/11 17:05:33;;;;;;;34.27;28.03;;;14.60;99.90;;;;;;5095425;28;20404;-69